Time;durP1;ratioP1;P1;durP2;ratioP2;P2;SDS_P1;SDS_P2;PMS_P1;PMS_P2;Temp;Humidity;BMP_temperature;BMP_pressure;BME280_temperature;BME280_humidity;BME280_pressure;Samples;Min_cycle;Max_cycle;Signal;HPM_P1;HPM_P2
2023/12/16 00:00:15;;;;;;;1.10;1.00;;;;;;;0.18;78.50;94697.97;5024227;28;20117;-78
2023/12/16 00:02:42;;;;;;;1.20;1.10;;;;;;;-0.10;79.80;94662.81;5007976;28;20045;-77
2023/12/16 00:05:08;;;;;;;1.05;0.95;;;;;;;0.03;79.84;94687.94;5025139;28;20037;-78
2023/12/16 00:07:34;;;;;;;1.17;1.10;;;;;;;-0.18;79.65;94663.13;5023913;28;20074;-78
2023/12/16 00:10:01;;;;;;;1.40;1.30;;;;;;;-0.03;79.92;94701.13;5023647;28;20075;-77
2023/12/16 00:12:26;;;;;;;1.20;1.10;;;;;;;0.14;79.23;94687.16;5025966;28;20020;-78
2023/12/16 00:14:51;;;;;;;1.00;1.00;;;;;;;0.22;78.33;94710.34;5020302;28;20125;-79
2023/12/16 00:17:18;;;;;;;1.25;1.10;;;;;;;0.15;78.49;94683.53;5007465;28;20511;-78
2023/12/16 00:19:43;;;;;;;1.60;1.50;;;;;;;0.21;77.72;94724.47;5008298;28;20037;-78
2023/12/16 00:22:09;;;;;;;1.40;1.30;;;;;;;-0.17;78.60;94705.75;5009476;28;20081;-79
2023/12/16 00:24:34;;;;;;;3.47;1.30;;;;;;;-0.40;80.01;94716.16;5029392;28;20064;-78
2023/12/16 00:27:00;;;;;;;1.30;1.20;;;;;;;-0.62;81.08;94719.25;5023767;28;20044;-78
2023/12/16 00:29:26;;;;;;;1.88;1.40;;;;;;;-0.39;81.00;94729.00;5024871;28;20042;-78
2023/12/16 00:31:52;;;;;;;1.55;1.45;;;;;;;-0.58;81.33;94730.84;5024553;28;20037;-77
2023/12/16 00:34:18;;;;;;;1.48;1.17;;;;;;;-0.61;81.30;94702.56;5026834;28;20161;-80
2023/12/16 00:36:43;;;;;;;1.40;1.30;;;;;;;-0.55;81.56;94729.63;5030020;28;20029;-78
2023/12/16 00:39:09;;;;;;;1.17;1.10;;;;;;;-0.64;82.09;94734.38;5017599;28;20033;-78
2023/12/16 00:41:34;;;;;;;1.42;1.20;;;;;;;-0.32;81.56;94711.41;5026274;28;20350;-77
2023/12/16 00:44:00;;;;;;;1.00;1.00;;;;;;;-0.64;81.21;94725.75;5029017;28;20038;-78
2023/12/16 00:46:26;;;;;;;1.60;1.50;;;;;;;-1.22;82.02;94688.91;5012419;28;20037;-77
2023/12/16 00:48:51;;;;;;;1.20;1.20;;;;;;;-1.29;83.21;94722.09;5028309;28;20034;-77
2023/12/16 00:51:19;;;;;;;1.58;1.40;;;;;;;-1.34;83.96;94741.00;5024616;28;20073;-77
2023/12/16 00:53:45;;;;;;;1.30;1.20;;;;;;;-1.42;84.64;94759.56;5024915;28;20072;-78
2023/12/16 00:56:13;;;;;;;1.60;1.50;;;;;;;-1.79;85.62;94726.56;5022769;28;20083;-78
2023/12/16 00:58:39;;;;;;;1.40;1.30;;;;;;;-1.47;85.92;94764.63;5005555;28;20674;-78
2023/12/16 01:01:04;;;;;;;1.48;1.38;;;;;;;-1.63;86.38;94750.31;5022074;28;20030;-78
2023/12/16 01:03:30;;;;;;;2.83;2.05;;;;;;;-1.41;86.25;94740.28;5021109;28;20021;-78
2023/12/16 01:05:55;;;;;;;1.95;1.73;;;;;;;-1.20;85.68;94775.59;5019907;28;20076;-77
2023/12/16 01:08:20;;;;;;;1.85;1.48;;;;;;;-1.43;86.06;94744.91;5019834;28;20045;-78
2023/12/16 01:10:46;;;;;;;1.42;1.33;;;;;;;-1.30;84.88;94772.69;5022191;28;20026;-78
2023/12/16 01:13:11;;;;;;;1.30;1.20;;;;;;;-1.15;85.06;94760.06;5010312;28;21425;-78
2023/12/16 01:15:37;;;;;;;2.30;1.40;;;;;;;-1.19;84.69;94741.44;5025377;28;20045;-78
2023/12/16 01:18:03;;;;;;;2.25;1.70;;;;;;;-1.42;85.23;94778.63;5025554;28;20285;-78
2023/12/16 01:20:29;;;;;;;3.70;2.58;;;;;;;-1.24;85.68;94771.81;5024605;28;20060;-78
2023/12/16 01:22:54;;;;;;;1.33;1.30;;;;;;;-1.60;85.97;94746.47;5022217;28;20042;-77
2023/12/16 01:25:19;;;;;;;1.67;1.58;;;;;;;-1.33;85.70;94779.16;5026391;28;20381;-77
2023/12/16 01:27:47;;;;;;;1.35;1.25;;;;;;;-1.35;85.88;94764.69;5012900;28;20065;-79
2023/12/16 01:30:12;;;;;;;1.58;1.48;;;;;;;-1.38;86.51;94782.41;5028059;28;20105;-78
2023/12/16 01:32:37;;;;;;;1.40;1.30;;;;;;;-1.27;85.88;94778.28;5014173;28;20521;-79
2023/12/16 01:35:03;;;;;;;1.67;1.42;;;;;;;-0.97;85.50;94784.38;5025939;28;20742;-78
2023/12/16 01:37:29;;;;;;;1.38;1.27;;;;;;;-0.96;84.52;94774.72;5027720;28;20044;-78
2023/12/16 01:39:54;;;;;;;1.25;1.23;;;;;;;-0.99;83.87;94783.00;5025765;28;20663;-78
2023/12/16 01:42:20;;;;;;;1.40;1.30;;;;;;;-1.19;84.29;94785.81;5029069;28;20073;-77
2023/12/16 01:44:45;;;;;;;1.10;1.10;;;;;;;-1.19;85.21;94769.38;5029109;28;20169;-78
2023/12/16 01:47:11;;;;;;;1.50;1.40;;;;;;;-0.92;84.40;94780.34;5030118;28;20065;-78
2023/12/16 01:49:37;;;;;;;1.85;1.70;;;;;;;-1.17;84.21;94770.75;5028931;28;20044;-78
2023/12/16 01:52:06;;;;;;;1.35;1.23;;;;;;;-1.37;84.97;94767.53;5029394;28;20029;-77
2023/12/16 01:54:32;;;;;;;1.25;1.15;;;;;;;-1.15;84.52;94750.44;5026395;28;20024;-77
2023/12/16 01:57:03;;;;;;;1.20;1.10;;;;;;;-0.65;83.35;94786.84;5027167;28;20045;-77
2023/12/16 01:59:30;;;;;;;1.70;1.30;;;;;;;-0.57;82.95;94784.72;5018242;28;20101;-77
2023/12/16 02:01:57;;;;;;;2.17;1.40;;;;;;;-0.55;82.53;94761.00;5025067;28;20068;-78
2023/12/16 02:04:23;;;;;;;1.48;1.38;;;;;;;-0.71;82.24;94792.94;5028096;28;20041;-78
2023/12/16 02:06:48;;;;;;;1.45;1.30;;;;;;;-0.93;83.15;94776.94;5025660;28;20017;-78
2023/12/16 02:09:16;;;;;;;2.63;1.30;;;;;;;-0.85;83.25;94787.06;5027832;28;20484;-77
2023/12/16 02:11:41;;;;;;;1.35;1.25;;;;;;;-0.64;82.85;94794.47;5026471;28;20103;-78
2023/12/16 02:14:07;;;;;;;1.00;1.00;;;;;;;-1.01;82.66;94780.59;5027583;28;20037;-77
2023/12/16 02:16:32;;;;;;;1.20;1.10;;;;;;;-1.24;83.96;94784.88;5023560;28;20021;-77
2023/12/16 02:18:58;;;;;;;1.40;1.30;;;;;;;-0.92;83.70;94796.00;5028125;28;20048;-78
2023/12/16 02:21:23;;;;;;;1.23;1.20;;;;;;;-0.96;82.83;94770.31;5026322;28;20036;-78
2023/12/16 02:23:49;;;;;;;1.10;1.10;;;;;;;-0.99;82.82;94785.63;5028441;28;20142;-78
2023/12/16 02:26:14;;;;;;;1.08;1.00;;;;;;;-0.68;82.05;94800.34;5026525;28;20792;-77
2023/12/16 02:28:40;;;;;;;1.05;1.05;;;;;;;-0.69;82.28;94804.78;5021520;28;20044;-78
2023/12/16 02:31:06;;;;;;;2.08;1.30;;;;;;;-0.92;82.09;94790.78;5024962;28;20025;-77
2023/12/16 02:33:32;;;;;;;1.35;1.25;;;;;;;-1.01;81.88;94804.09;5026231;28;20052;-78
2023/12/16 02:35:59;;;;;;;1.15;1.10;;;;;;;-0.93;82.67;94816.09;5028264;28;20045;-79
2023/12/16 02:38:26;;;;;;;1.23;1.13;;;;;;;-0.92;82.20;94806.44;5025624;28;20025;-79
2023/12/16 02:40:52;;;;;;;1.20;1.10;;;;;;;-1.04;82.37;94798.53;5023856;28;20606;-78
2023/12/16 02:43:17;;;;;;;1.00;1.00;;;;;;;-1.16;82.24;94815.91;5023528;28;20092;-79
2023/12/16 02:45:43;;;;;;;1.15;1.08;;;;;;;-1.22;83.03;94817.59;5006918;28;20029;-77
2023/12/16 02:48:08;;;;;;;1.10;1.10;;;;;;;-0.99;82.67;94820.38;5027247;28;20052;-77
2023/12/16 02:50:33;;;;;;;1.30;1.20;;;;;;;-0.91;82.54;94834.13;5026755;28;20029;-78
2023/12/16 02:52:59;;;;;;;1.00;1.00;;;;;;;-1.14;81.84;94803.44;5029137;28;20037;-78
2023/12/16 02:55:25;;;;;;;1.50;1.40;;;;;;;-1.05;82.22;94836.91;5025509;28;20037;-79
2023/12/16 02:57:51;;;;;;;2.33;2.17;;;;;;;-1.61;83.78;94815.31;5027861;28;20697;-77
2023/12/16 03:00:16;;;;;;;2.53;2.28;;;;;;;-1.47;84.78;94824.63;5026067;28;20036;-77
2023/12/16 03:02:42;;;;;;;8.27;5.25;;;;;;;-1.71;85.42;94833.25;5026445;28;20157;-75
2023/12/16 03:05:07;;;;;;;12.57;7.15;;;;;;;-1.86;86.98;94850.00;5023974;28;20488;-77
2023/12/16 03:07:33;;;;;;;6.95;4.95;;;;;;;-1.77;87.52;94860.19;5021262;28;20101;-78
2023/12/16 03:09:58;;;;;;;2.25;2.10;;;;;;;-1.99;87.58;94842.25;5024690;28;20616;-77
2023/12/16 03:12:24;;;;;;;2.55;2.33;;;;;;;-2.11;87.86;94827.50;5024677;28;20093;-78
2023/12/16 03:14:50;;;;;;;2.17;1.58;;;;;;;-1.84;87.57;94853.19;5007498;28;20033;-77
2023/12/16 03:17:16;;;;;;;1.77;1.60;;;;;;;-1.70;87.63;94861.72;5023981;28;20041;-77
2023/12/16 03:19:41;;;;;;;3.75;2.38;;;;;;;-2.11;87.49;94781.38;5013406;28;20033;-78
2023/12/16 03:22:08;;;;;;;8.73;3.38;;;;;;;-1.58;87.36;94826.13;5013333;28;20040;-78
2023/12/16 03:24:33;;;;;;;5.03;4.28;;;;;;;-1.20;86.99;94854.72;5003471;28;20087;-78
2023/12/16 03:27:01;;;;;;;2.42;2.22;;;;;;;-1.43;86.57;94862.34;5022799;28;20034;-77
2023/12/16 03:29:28;;;;;;;6.88;2.55;;;;;;;-1.55;86.54;94861.41;5023239;28;20034;-77
2023/12/16 03:31:55;;;;;;;5.82;2.90;;;;;;;-1.70;87.17;94859.13;5022659;28;20058;-77
2023/12/16 03:34:21;;;;;;;4.28;3.28;;;;;;;-1.83;87.65;94841.75;5021869;28;20049;-78
2023/12/16 03:36:46;;;;;;;3.80;3.40;;;;;;;-1.85;88.33;94879.50;5007022;28;20287;-76
2023/12/16 03:39:12;;;;;;;5.03;4.53;;;;;;;-2.00;89.11;94873.78;5024321;28;20037;-78
2023/12/16 03:41:37;;;;;;;4.47;3.58;;;;;;;-2.02;89.71;94879.19;5021877;28;20516;-77
2023/12/16 03:44:04;;;;;;;3.92;2.15;;;;;;;-2.16;89.71;94841.16;5024991;28;20037;-77
2023/12/16 03:46:30;;;;;;;2.50;2.30;;;;;;;-2.02;88.93;94858.31;5007830;28;20492;-77
2023/12/16 03:48:55;;;;;;;4.45;3.72;;;;;;;-1.94;89.38;94897.19;5024316;28;20030;-77
2023/12/16 03:51:22;;;;;;;5.35;2.60;;;;;;;-1.92;89.06;94900.38;5010831;28;20033;-77
2023/12/16 03:53:47;;;;;;;3.70;3.33;;;;;;;-2.25;88.97;94889.31;5026616;28;20056;-77
2023/12/16 03:56:13;;;;;;;5.85;2.45;;;;;;;-2.48;89.71;94868.97;5012499;28;20041;-77
2023/12/16 03:58:38;;;;;;;3.75;3.17;;;;;;;-2.17;90.50;94917.75;5026630;28;20045;-77
2023/12/16 04:01:04;;;;;;;7.00;3.65;;;;;;;-2.11;90.44;94885.66;5027151;28;20021;-78
2023/12/16 04:03:30;;;;;;;2.95;1.60;;;;;;;-2.19;89.83;94904.13;5025642;28;20025;-78
2023/12/16 04:05:56;;;;;;;5.80;1.67;;;;;;;-2.13;88.91;94929.34;5025454;28;20021;-77
2023/12/16 04:08:21;;;;;;;1.48;1.38;;;;;;;-2.06;88.53;94929.34;5024530;28;20097;-77
2023/12/16 04:10:46;;;;;;;1.40;1.30;;;;;;;-1.98;87.87;94924.69;5031234;28;20071;-77
2023/12/16 04:13:14;;;;;;;2.47;1.10;;;;;;;-2.18;87.57;94905.72;5027020;28;20314;-78
2023/12/16 04:15:40;;;;;;;1.23;1.20;;;;;;;-2.04;87.67;94928.09;5028690;28;20124;-78
2023/12/16 04:18:05;;;;;;;1.75;1.20;;;;;;;-2.08;87.50;94929.53;5021980;28;20525;-79
2023/12/16 04:20:31;;;;;;;2.08;1.17;;;;;;;-2.33;87.82;94916.41;5026549;28;20037;-77
2023/12/16 04:22:56;;;;;;;2.40;1.35;;;;;;;-1.96;87.77;94945.34;5026937;28;20042;-77
2023/12/16 04:25:21;;;;;;;1.45;1.30;;;;;;;-1.90;87.42;94944.50;5006218;28;20038;-78
2023/12/16 04:27:47;;;;;;;3.47;1.40;;;;;;;-1.84;87.39;94947.06;5028832;28;20558;-77
2023/12/16 04:30:12;;;;;;;2.65;1.50;;;;;;;-1.85;87.49;94940.25;5027388;28;20492;-78
2023/12/16 04:32:38;;;;;;;1.60;1.50;;;;;;;-2.00;87.32;94939.75;5028458;28;20045;-77
2023/12/16 04:35:04;;;;;;;2.10;1.90;;;;;;;-2.39;87.79;94927.66;5024159;28;20037;-77
2023/12/16 04:37:30;;;;;;;1.40;1.30;;;;;;;-2.22;88.00;94927.19;5026707;28;20086;-77
2023/12/16 04:39:55;;;;;;;1.92;1.70;;;;;;;-2.14;87.76;94927.75;5024124;28;20070;-78
2023/12/16 04:42:22;;;;;;;2.35;2.15;;;;;;;-2.06;87.66;94945.78;5016406;28;20037;-79
2023/12/16 04:44:47;;;;;;;3.72;1.98;;;;;;;-2.09;87.72;94938.34;5014013;28;20042;-78
2023/12/16 04:47:13;;;;;;;2.30;2.10;;;;;;;-2.04;87.35;94938.53;5014856;28;20416;-79
2023/12/16 04:49:40;;;;;;;3.00;2.20;;;;;;;-1.85;87.06;94957.72;5009691;28;20129;-78
2023/12/16 04:52:06;;;;;;;8.85;2.70;;;;;;;-1.96;86.38;94956.56;5025989;28;20087;-78
2023/12/16 04:54:31;;;;;;;1.42;1.30;;;;;;;-1.94;86.47;94969.38;5016538;28;20018;-78
2023/12/16 04:56:57;;;;;;;2.85;1.58;;;;;;;-2.02;86.15;94956.59;5008144;28;20421;-78
2023/12/16 04:59:22;;;;;;;5.60;2.17;;;;;;;-2.02;86.70;94972.22;5027021;28;20045;-77
2023/12/16 05:01:49;;;;;;;1.55;1.45;;;;;;;-1.93;86.73;94971.00;5028495;28;20034;-77
2023/12/16 05:04:14;;;;;;;1.90;1.50;;;;;;;-2.12;86.78;94961.44;5032830;28;20034;-78
2023/12/16 05:06:39;;;;;;;2.38;2.10;;;;;;;-2.22;86.83;94958.47;5029110;28;20888;-77
2023/12/16 05:09:12;;;;;;;1.83;1.50;;;;;;;-2.36;87.27;94970.75;5030480;28;20634;-78
2023/12/16 05:11:37;;;;;;;2.10;1.90;;;;;;;-2.28;86.97;94980.94;5023853;28;20101;-77
2023/12/16 05:14:03;;;;;;;2.63;1.92;;;;;;;-2.43;87.38;94983.78;5010306;28;20367;-77
2023/12/16 05:16:29;;;;;;;4.18;2.30;;;;;;;-2.45;87.90;94977.97;5007576;28;20292;-78
2023/12/16 05:18:54;;;;;;;2.60;2.40;;;;;;;-2.41;88.02;94983.59;5017024;28;20120;-77
2023/12/16 05:21:20;;;;;;;3.65;2.40;;;;;;;-2.24;88.17;95002.97;5027139;28;20037;-77
2023/12/16 05:23:46;;;;;;;19.00;8.50;;;;;;;-2.26;88.19;95005.81;5016179;28;20048;-79
2023/12/16 05:26:12;;;;;;;18.05;10.43;;;;;;;-2.55;88.40;94987.22;5026760;28;20049;-77
2023/12/16 05:28:37;;;;;;;7.82;6.22;;;;;;;-2.51;89.37;95010.06;5023455;28;20132;-77
2023/12/16 05:31:03;;;;;;;8.77;6.88;;;;;;;-2.56;89.09;94977.78;5010839;28;20136;-77
2023/12/16 05:33:28;;;;;;;8.98;5.80;;;;;;;-2.36;88.81;95002.81;5024436;28;20023;-78
2023/12/16 05:35:53;;;;;;;4.00;3.60;;;;;;;-2.30;88.86;95011.63;5027478;28;20137;-79
2023/12/16 05:38:19;;;;;;;7.50;3.22;;;;;;;-2.50;89.22;95010.84;5026294;28;20056;-77
2023/12/16 05:40:44;;;;;;;3.10;2.80;;;;;;;-2.42;89.48;95014.03;5027365;28;20033;-78
2023/12/16 05:43:10;;;;;;;4.13;2.20;;;;;;;-2.36;89.07;95018.44;5016016;28;20437;-77
2023/12/16 05:45:35;;;;;;;3.25;2.95;;;;;;;-2.77;89.06;94974.41;5027475;28;20111;-78
2023/12/16 05:48:01;;;;;;;2.95;2.28;;;;;;;-2.37;87.71;94993.38;5022805;28;20133;-77
2023/12/16 05:50:26;;;;;;;4.50;2.30;;;;;;;-2.38;86.55;94976.16;5020753;28;20128;-78
2023/12/16 05:52:51;;;;;;;2.17;1.83;;;;;;;-2.31;85.88;95005.59;5021330;28;20034;-77
2023/12/16 05:55:22;;;;;;;1.40;1.30;;;;;;;-2.20;85.33;95017.22;5020576;28;20049;-78
2023/12/16 05:57:48;;;;;;;1.40;1.27;;;;;;;-1.80;84.97;95001.44;5026038;28;20037;-78
2023/12/16 06:00:13;;;;;;;1.50;1.40;;;;;;;-2.09;83.26;94976.66;5023393;28;20066;-77
2023/12/16 06:02:39;;;;;;;1.42;1.33;;;;;;;-2.29;83.31;94956.69;5010376;28;20114;-78
2023/12/16 06:05:09;;;;;;;2.53;1.55;;;;;;;-1.69;82.98;94991.13;5023636;28;20074;-78
2023/12/16 06:07:34;;;;;;;1.77;1.40;;;;;;;-1.33;82.18;94998.38;5017917;28;20097;-77
2023/12/16 06:09:59;;;;;;;16.90;2.45;;;;;;;-1.55;81.44;95015.34;5017628;28;20045;-78
2023/12/16 06:12:25;;;;;;;2.80;1.52;;;;;;;-1.69;80.56;95014.63;5026893;28;20675;-77
2023/12/16 06:14:50;;;;;;;1.20;1.20;;;;;;;-1.63;81.54;95034.66;5024421;28;20045;-78
2023/12/16 06:17:16;;;;;;;1.00;1.00;;;;;;;-1.70;80.93;95017.44;5027730;28;20224;-78
2023/12/16 06:19:41;;;;;;;1.40;1.30;;;;;;;-1.95;81.69;95006.91;5024522;28;20539;-77
2023/12/16 06:22:07;;;;;;;1.50;1.40;;;;;;;-1.96;82.08;95024.38;5028846;28;20025;-78
2023/12/16 06:24:32;;;;;;;1.48;1.38;;;;;;;-2.07;81.92;95021.56;5010174;28;20072;-79
2023/12/16 06:26:58;;;;;;;1.80;1.70;;;;;;;-1.81;82.65;95037.16;5023067;28;20362;-78
2023/12/16 06:29:23;;;;;;;1.58;1.48;;;;;;;-1.98;83.23;95062.88;5006288;28;20119;-79
2023/12/16 06:31:49;;;;;;;2.05;1.88;;;;;;;-1.89;83.00;95059.03;5011025;28;20122;-78
2023/12/16 06:34:18;;;;;;;2.47;1.95;;;;;;;-1.98;83.18;95056.84;5024659;28;20037;-77
2023/12/16 06:36:46;;;;;;;3.70;2.65;;;;;;;-1.57;83.23;95065.16;5023737;28;20516;-78
2023/12/16 06:39:12;;;;;;;2.50;1.85;;;;;;;-1.89;82.31;95027.72;5006767;28;20452;-79
2023/12/16 06:41:37;;;;;;;2.65;2.15;;;;;;;-1.77;82.75;95079.25;5021927;28;20072;-78
2023/12/16 06:44:03;;;;;;;2.60;1.80;;;;;;;-1.61;82.70;95077.00;5021833;28;20034;-79
2023/12/16 06:46:28;;;;;;;1.92;1.80;;;;;;;-1.68;82.46;95093.66;5021678;28;20063;-77
2023/12/16 06:48:54;;;;;;;7.13;1.75;;;;;;;-1.72;82.84;95089.88;5023272;28;20029;-78
2023/12/16 06:51:19;;;;;;;2.72;1.92;;;;;;;-1.56;82.81;95110.31;5023334;28;20025;-77
2023/12/16 06:53:44;;;;;;;2.33;1.52;;;;;;;-1.94;82.67;95111.00;5023546;28;20037;-78
2023/12/16 06:56:10;;;;;;;1.75;1.65;;;;;;;-2.00;83.55;95106.59;5024583;28;20092;-77
2023/12/16 06:58:37;;;;;;;2.28;2.08;;;;;;;-2.09;84.37;95113.00;5019777;28;20401;-78
2023/12/16 07:01:03;;;;;;;2.58;1.88;;;;;;;-2.14;84.89;95099.00;5023793;28;20037;-78
2023/12/16 07:03:28;;;;;;;5.18;1.50;;;;;;;-2.01;84.41;95133.69;5023776;28;20029;-77
2023/12/16 07:05:55;;;;;;;5.40;2.97;;;;;;;-1.92;84.42;95135.06;5025605;28;20034;-78
2023/12/16 07:08:21;;;;;;;6.40;3.63;;;;;;;-1.50;84.08;95128.53;5021887;28;20379;-77
2023/12/16 07:10:46;;;;;;;10.25;4.45;;;;;;;-1.03;82.41;95135.19;5028805;28;20115;-78
2023/12/16 07:13:12;;;;;;;4.10;2.35;;;;;;;-1.27;81.35;95154.16;5027154;28;20636;-78
2023/12/16 07:15:38;;;;;;;3.88;2.55;;;;;;;-1.50;82.28;95130.34;5029561;28;20053;-77
2023/12/16 07:18:04;;;;;;;3.60;2.35;;;;;;;-1.17;81.89;95158.94;5023946;28;20061;-77
2023/12/16 07:20:29;;;;;;;2.05;1.90;;;;;;;-1.41;80.88;95155.22;5009192;28;20026;-78
2023/12/16 07:22:55;;;;;;;2.58;1.90;;;;;;;-1.56;81.93;95165.91;5015044;28;20113;-78
2023/12/16 07:25:21;;;;;;;2.80;2.22;;;;;;;-1.40;81.47;95154.19;5020122;28;20035;-78
2023/12/16 07:27:47;;;;;;;3.63;3.08;;;;;;;-1.42;80.79;95162.25;5023884;28;20032;-78
2023/12/16 07:30:13;;;;;;;4.20;3.80;;;;;;;-1.55;80.36;95114.50;5022978;28;20037;-77
2023/12/16 07:32:40;;;;;;;1.30;1.20;;;;;;;-1.41;80.35;95166.44;5021662;28;20026;-78
2023/12/16 07:35:12;;;;;;;2.40;2.20;;;;;;;-1.27;80.11;95164.59;5005239;28;20132;-78
2023/12/16 07:37:41;;;;;;;1.73;1.63;;;;;;;-1.49;80.08;95142.38;5024913;28;20061;-77
2023/12/16 07:40:08;;;;;;;1.73;1.50;;;;;;;-1.38;80.39;95152.19;5022153;28;20027;-78
2023/12/16 07:42:36;;;;;;;3.13;1.90;;;;;;;-1.26;80.14;95154.94;5024291;28;20033;-77
2023/12/16 07:45:02;;;;;;;1.63;1.48;;;;;;;-1.45;80.35;95183.50;5026892;28;20527;-78
2023/12/16 07:47:28;;;;;;;2.65;1.52;;;;;;;-1.29;80.53;95179.66;5028884;28;20522;-77
2023/12/16 07:49:53;;;;;;;2.20;1.33;;;;;;;-1.31;80.31;95179.03;5027287;28;20041;-78
2023/12/16 07:52:19;;;;;;;1.40;1.30;;;;;;;-1.37;80.22;95185.13;5029988;28;20038;-78
2023/12/16 07:54:44;;;;;;;2.08;1.55;;;;;;;-1.96;81.51;95146.91;5008812;28;20093;-78
2023/12/16 07:57:10;;;;;;;5.90;4.05;;;;;;;-1.63;82.09;95191.19;5028234;28;20050;-77
2023/12/16 07:59:36;;;;;;;1.95;1.83;;;;;;;-1.72;82.45;95194.22;5029873;28;20382;-77
2023/12/16 08:02:06;;;;;;;4.22;1.90;;;;;;;-1.58;82.06;95180.94;5027298;28;20030;-78
2023/12/16 08:04:31;;;;;;;1.50;1.40;;;;;;;-2.16;82.87;95174.78;5028537;28;20495;-78
2023/12/16 08:06:57;;;;;;;1.73;1.52;;;;;;;-1.97;83.39;95178.41;5029241;28;20045;-76
2023/12/16 08:09:22;;;;;;;3.38;2.40;;;;;;;-1.68;83.13;95208.44;5027926;28;20040;-79
2023/12/16 08:11:48;;;;;;;3.33;2.17;;;;;;;-1.92;83.00;95222.91;5012300;28;20050;-78
2023/12/16 08:14:13;;;;;;;2.63;1.50;;;;;;;-1.98;82.68;95221.09;5030098;28;20034;-76
2023/12/16 08:16:40;;;;;;;2.13;1.92;;;;;;;-2.04;83.35;95214.88;5032195;28;20052;-76
2023/12/16 08:19:05;;;;;;;1.90;1.75;;;;;;;-1.85;83.35;95221.91;5030058;28;20045;-78
2023/12/16 08:21:31;;;;;;;2.13;1.90;;;;;;;-1.92;82.97;95223.72;5032975;28;20024;-78
2023/12/16 08:23:56;;;;;;;2.72;1.95;;;;;;;-1.89;83.37;95212.88;5009837;28;20046;-78
2023/12/16 08:26:22;;;;;;;2.00;1.80;;;;;;;-1.62;83.06;95213.66;4993680;28;20037;-78
2023/12/16 08:28:50;;;;;;;3.10;2.80;;;;;;;-1.56;81.85;95227.72;5009354;28;20344;-77
2023/12/16 08:31:17;;;;;;;2.00;1.80;;;;;;;-1.23;81.35;95227.63;5014335;28;20058;-76
2023/12/16 08:33:43;;;;;;;2.60;2.40;;;;;;;-1.37;80.87;95213.81;5014472;28;20020;-79
2023/12/16 08:36:09;;;;;;;3.83;3.17;;;;;;;-1.40;80.37;95217.63;4996893;28;20030;-78
2023/12/16 08:38:39;;;;;;;4.13;2.90;;;;;;;-1.14;80.56;95232.44;4995001;28;20033;-78
2023/12/16 08:41:08;;;;;;;2.53;2.00;;;;;;;-1.29;80.20;95224.03;5011109;28;20416;-77
2023/12/16 08:43:34;;;;;;;2.55;2.35;;;;;;;-1.22;79.75;95177.84;4998489;28;20049;-76
2023/12/16 08:46:04;;;;;;;2.13;1.92;;;;;;;-1.10;79.33;95217.94;5007866;28;20025;-77
2023/12/16 08:48:29;;;;;;;1.60;1.50;;;;;;;-1.63;79.56;95159.06;5019793;28;20052;-80
2023/12/16 08:50:57;;;;;;;1.85;1.65;;;;;;;-1.29;79.03;95197.94;4998259;28;21161;-76
2023/12/16 08:53:24;;;;;;;2.38;2.17;;;;;;;-1.66;79.51;95206.44;5004007;28;20482;-78
2023/12/16 08:55:52;;;;;;;1.58;1.45;;;;;;;-1.93;80.69;95216.91;5011131;28;20629;-79
2023/12/16 08:58:18;;;;;;;3.28;1.70;;;;;;;-1.70;81.28;95220.91;4986762;28;20281;-80
2023/12/16 09:00:43;;;;;;;3.75;1.92;;;;;;;-2.14;81.57;95204.06;4998084;28;20053;-80
2023/12/16 09:03:09;;;;;;;3.13;2.22;;;;;;;-1.88;82.39;95219.72;5010975;28;20091;-79
2023/12/16 09:05:36;;;;;;;2.20;1.50;;;;;;;-1.80;81.92;95217.91;5015425;28;20034;-79
2023/12/16 09:08:03;;;;;;;2.35;2.00;;;;;;;-2.01;80.80;95132.88;5012083;28;20038;-79
2023/12/16 09:10:28;;;;;;;3.67;2.42;;;;;;;-1.29;80.22;95213.59;5011649;28;20122;-76
2023/12/16 09:12:54;;;;;;;1.70;1.40;;;;;;;-1.79;79.29;95212.47;4994568;28;20029;-77
2023/12/16 09:15:19;;;;;;;2.20;2.00;;;;;;;-1.70;80.88;95219.09;5003570;28;20873;-78
2023/12/16 09:17:47;;;;;;;2.80;1.75;;;;;;;-1.70;81.22;95218.31;4999328;28;20049;-80
2023/12/16 09:20:16;;;;;;;3.17;2.88;;;;;;;-1.67;81.50;95210.06;4984088;28;20891;-77
2023/12/16 09:22:42;;;;;;;2.13;1.95;;;;;;;-1.56;81.27;95152.84;4998238;28;20379;-78
2023/12/16 09:25:09;;;;;;;2.55;1.50;;;;;;;-1.31;80.23;95215.59;5006839;28;20036;-78
2023/12/16 09:27:35;;;;;;;1.67;1.48;;;;;;;-0.95;79.70;95200.22;5006070;28;20478;-77
2023/12/16 09:30:02;;;;;;;1.92;1.50;;;;;;;-0.97;78.53;95181.31;5001642;28;20173;-78
2023/12/16 09:32:27;;;;;;;1.83;1.52;;;;;;;-1.12;77.89;95177.41;5005411;28;20045;-79
2023/12/16 09:34:55;;;;;;;1.80;1.70;;;;;;;-1.13;77.88;95191.47;5001171;28;20313;-78
2023/12/16 09:37:21;;;;;;;1.95;1.70;;;;;;;-1.43;79.17;95183.31;4984674;28;20847;-77
2023/12/16 09:39:46;;;;;;;2.42;2.10;;;;;;;-1.47;79.09;95169.88;4991530;28;20155;-77
2023/12/16 09:42:14;;;;;;;1.95;1.52;;;;;;;-1.75;79.53;95186.81;4974502;28;20044;-75
2023/12/16 09:44:41;;;;;;;3.45;2.20;;;;;;;-1.70;80.49;95197.44;5000681;28;20065;-77
2023/12/16 09:47:11;;;;;;;3.67;2.10;;;;;;;-1.60;81.10;95185.56;5006260;28;20129;-78
2023/12/16 09:49:38;;;;;;;2.90;1.90;;;;;;;-1.43;80.17;95185.94;5010219;28;20053;-78
2023/12/16 09:52:10;;;;;;;4.45;3.03;;;;;;;-1.25;80.42;95193.91;5005515;28;20041;-77
2023/12/16 09:54:38;;;;;;;3.28;2.28;;;;;;;-1.39;79.61;95142.75;5009609;28;20030;-77
2023/12/16 09:57:19;;;;;;;3.20;2.40;;;;;;;-0.93;78.16;95207.03;5009606;28;20045;-78
2023/12/16 09:59:52;;;;;;;5.47;2.30;;;;;;;-2.72;78.22;94961.59;4989237;28;20042;-78
2023/12/16 10:02:27;;;;;;;3.40;1.70;;;;;;;-2.06;78.21;95119.66;4990080;28;20037;-77
2023/12/16 10:04:56;;;;;;;2.33;1.80;;;;;;;-3.12;79.40;94957.41;5010419;28;20048;-77
2023/12/16 10:07:22;;;;;;;5.63;2.60;;;;;;;-2.89;79.41;94955.22;5007419;28;20632;-78
2023/12/16 10:09:47;;;;;;;2.85;1.90;;;;;;;-2.75;79.23;95003.66;5010460;28;20021;-78
2023/12/16 10:12:13;;;;;;;4.07;2.70;;;;;;;-1.22;79.33;95188.28;5012048;28;20041;-78
2023/12/16 10:14:47;;;;;;;3.63;2.53;;;;;;;-2.32;77.79;94998.00;5009088;28;20149;-77
2023/12/16 10:17:14;;;;;;;5.35;2.40;;;;;;;-2.00;76.35;94991.09;5003094;28;20048;-77
2023/12/16 10:19:43;;;;;;;6.40;3.17;;;;;;;-1.38;75.97;95106.00;5002221;28;20085;-78
2023/12/16 10:22:11;;;;;;;4.85;3.10;;;;;;;-1.38;77.07;95131.31;5016906;28;20025;-77
2023/12/16 10:24:38;;;;;;;1.73;1.48;;;;;;;-1.43;74.57;95042.41;5015944;28;20014;-77
2023/12/16 10:27:15;;;;;;;2.53;2.10;;;;;;;-0.60;74.47;95176.31;5019283;28;20037;-77
2023/12/16 10:29:41;;;;;;;1.70;1.30;;;;;;;-0.72;74.14;95196.28;5000728;28;20144;-77
2023/12/16 10:32:11;;;;;;;1.50;1.38;;;;;;;-1.15;75.85;95189.03;5017500;28;20099;-78
2023/12/16 10:34:38;;;;;;;1.77;1.67;;;;;;;-1.26;76.69;95158.34;4967537;28;20072;-77
2023/12/16 10:37:06;;;;;;;4.65;1.30;;;;;;;-0.76;75.18;95161.94;5013795;28;20041;-77
2023/12/16 10:39:33;;;;;;;1.73;1.55;;;;;;;-0.98;74.97;95140.56;5014145;28;20025;-78
2023/12/16 10:41:59;;;;;;;1.40;1.30;;;;;;;-0.76;75.36;95195.91;5004653;28;20048;-78
2023/12/16 10:44:27;;;;;;;1.70;1.60;;;;;;;-0.68;74.69;95171.34;4985268;28;20042;-78
2023/12/16 10:46:54;;;;;;;1.70;1.60;;;;;;;-0.56;74.28;95180.13;4994376;28;20504;-77
2023/12/16 10:49:42;;;;;;;1.15;1.08;;;;;;;-0.54;73.99;95188.56;4997068;28;20045;-77
2023/12/16 10:52:13;;;;;;;3.45;3.15;;;;;;;-1.15;75.10;95183.81;4994890;28;20022;-77
2023/12/16 10:54:47;;;;;;;2.03;1.77;;;;;;;-1.08;76.20;95184.59;4986414;28;20465;-79
2023/12/16 10:57:34;;;;;;;1.60;1.50;;;;;;;-1.06;76.62;95198.25;4979198;28;20042;-78
2023/12/16 11:00:07;;;;;;;2.63;2.08;;;;;;;-1.10;76.72;95196.25;4983499;28;20561;-77
2023/12/16 11:02:51;;;;;;;1.90;1.42;;;;;;;-1.02;77.01;95188.97;4979425;28;20033;-77
2023/12/16 11:05:32;;;;;;;1.70;1.60;;;;;;;-0.75;76.57;95196.72;4982654;28;20042;-77
2023/12/16 11:08:01;;;;;;;2.70;1.80;;;;;;;-0.71;75.87;95175.16;5000503;28;20148;-78
2023/12/16 11:10:29;;;;;;;2.22;1.88;;;;;;;-0.65;76.38;95194.44;4997984;28;20292;-78
2023/12/16 11:12:56;;;;;;;1.80;1.70;;;;;;;-0.83;75.45;95196.97;5000137;28;20746;-79
2023/12/16 11:15:23;;;;;;;2.38;1.95;;;;;;;-1.03;76.51;95176.97;5000914;28;20037;-77
2023/12/16 11:18:02;;;;;;;1.95;1.73;;;;;;;-0.79;77.19;95192.91;4969179;28;20910;-78
2023/12/16 11:20:41;;;;;;;1.50;1.40;;;;;;;-1.08;76.91;95171.56;5001940;28;20069;-78
2023/12/16 11:23:09;;;;;;;1.65;1.48;;;;;;;-0.81;75.70;95184.47;4985543;28;20033;-77
2023/12/16 11:25:36;;;;;;;2.67;1.75;;;;;;;-0.72;75.27;95189.25;5001192;28;20099;-79
2023/12/16 11:28:03;;;;;;;1.52;1.42;;;;;;;-0.96;76.01;95182.94;5000929;28;20029;-78
2023/12/16 11:30:29;;;;;;;1.95;1.30;;;;;;;-0.46;75.00;95183.06;5002593;28;20025;-77